createdAt,value
2019-03-26T00:04:17.095Z,19.02
2019-03-26T00:09:18.541Z,13.68
2019-03-26T00:14:19.896Z,15.98
2019-03-26T00:19:21.362Z,16.20
2019-03-26T00:24:22.830Z,8.98
2019-03-26T00:29:24.267Z,16.32
2019-03-26T00:34:27.484Z,15.23
2019-03-26T00:39:29.029Z,16.67
2019-03-26T00:44:30.675Z,13.50
2019-03-26T00:49:32.064Z,13.55
2019-03-26T00:54:33.641Z,13.78
2019-03-26T00:59:35.031Z,11.20
2019-03-26T01:04:36.486Z,12.18
2019-03-26T01:09:38.095Z,15.15
2019-03-26T01:14:39.413Z,17.50
2019-03-26T01:19:40.953Z,15.05
2019-03-26T01:24:42.505Z,13.35
2019-03-26T01:29:44.082Z,12.80
2019-03-26T01:34:46.386Z,14.55
2019-03-26T01:39:48.174Z,11.73
2019-03-26T01:44:51.639Z,15.08
2019-03-26T01:49:53.166Z,16.12
2019-03-26T01:54:55.762Z,13.43
2019-03-26T01:59:57.211Z,11.88
2019-03-26T02:05:00.122Z,12.58
2019-03-26T02:10:02.009Z,11.28
2019-03-26T02:15:07.186Z,9.93
2019-03-26T02:20:08.823Z,12.50
2019-03-26T02:25:10.432Z,12.30
2019-03-26T02:30:11.923Z,15.43
2019-03-26T02:35:18.134Z,15.63
2019-03-26T02:40:16.548Z,8.05
2019-03-26T02:45:17.973Z,13.60
2019-03-26T02:50:19.360Z,18.00
2019-03-26T02:55:21.008Z,16.65
2019-03-26T03:00:22.502Z,14.63
2019-03-26T03:05:35.200Z,18.40
2019-03-26T03:10:27.354Z,13.75
2019-03-26T03:15:28.788Z,14.65
2019-03-26T03:20:30.187Z,20.88
2019-03-26T03:25:31.702Z,15.88
2019-03-26T03:30:33.242Z,12.58
2019-03-26T03:35:50.784Z,12.60
2019-03-26T03:40:37.975Z,11.83
2019-03-26T03:45:40.534Z,16.95
2019-03-26T03:50:44.459Z,13.60
2019-03-26T03:55:49.368Z,17.17
2019-03-26T04:00:50.922Z,17.62
2019-03-26T04:06:07.818Z,13.65
2019-03-26T04:10:55.671Z,12.85
2019-03-26T04:15:57.652Z,14.38
2019-03-26T04:20:58.950Z,8.68
2019-03-26T04:26:00.460Z,16.90
2019-03-26T04:31:01.896Z,12.58
2019-03-26T04:36:03.441Z,17.32
2019-03-26T04:41:23.441Z,13.80
2019-03-26T04:46:24.733Z,20.20
2019-03-26T04:51:26.209Z,18.77
2019-03-26T04:56:27.628Z,18.12
2019-03-26T05:01:29.104Z,15.78
2019-03-26T05:06:37.852Z,14.60
2019-03-26T05:11:34.643Z,11.38
2019-03-26T05:16:35.955Z,13.62
2019-03-26T05:21:37.462Z,16.75
2019-03-26T05:26:38.971Z,16.75
2019-03-26T05:31:41.906Z,15.60
2019-03-26T05:36:51.127Z,16.30
2019-03-26T05:41:46.769Z,14.47
2019-03-26T05:46:48.199Z,16.48
2019-03-26T05:56:58.222Z,21.25
2019-03-26T06:01:59.559Z,16.70
2019-03-26T06:07:05.012Z,16.70
2019-03-26T06:12:04.373Z,14.00
2019-03-26T06:17:06.151Z,16.90
2019-03-26T06:22:07.478Z,16.48
2019-03-26T06:27:09.402Z,15.45
2019-03-26T06:32:10.967Z,13.65
2019-03-26T06:37:17.982Z,14.30
2019-03-26T06:42:16.246Z,23.02
2019-03-26T06:47:17.595Z,21.80
2019-03-26T06:52:18.922Z,18.52
2019-03-26T06:57:20.366Z,21.77
2019-03-26T07:02:24.687Z,18.50
2019-03-26T07:07:31.842Z,16.00
2019-03-26T07:12:29.440Z,16.77
2019-03-26T07:17:31.042Z,18.48
2019-03-26T07:22:32.463Z,20.57
2019-03-26T07:27:33.907Z,18.95
2019-03-26T07:32:35.236Z,14.05
2019-03-26T07:37:45.042Z,16.82
2019-03-26T07:42:50.125Z,17.07
2019-03-26T07:47:51.445Z,18.77
2019-03-26T07:52:52.890Z,13.90
2019-03-26T07:57:54.344Z,16.12
2019-03-26T08:02:58.874Z,18.98
2019-03-26T08:08:00.494Z,12.53
2019-03-26T08:13:01.941Z,15.28
2019-03-26T08:18:03.434Z,21.27
2019-03-26T08:23:05.074Z,19.42
2019-03-26T08:28:06.946Z,16.87
2019-03-26T08:33:08.237Z,17.32
2019-03-26T08:38:12.949Z,14.05
2019-03-26T08:43:13.010Z,12.40
2019-03-26T08:48:14.548Z,10.85
2019-03-26T08:53:16.000Z,17.45
2019-03-26T08:58:18.248Z,9.63
2019-03-26T09:03:19.716Z,9.18
2019-03-26T09:08:25.682Z,9.38
2019-03-26T09:13:24.620Z,10.80
2019-03-26T09:18:26.065Z,8.23
2019-03-26T09:23:27.427Z,14.83
2019-03-26T09:28:28.841Z,11.20
2019-03-26T09:33:30.353Z,11.00
2019-03-26T09:38:38.949Z,8.98
2019-03-26T09:43:36.570Z,19.65
2019-03-26T09:48:38.266Z,14.63
2019-03-26T09:53:39.947Z,11.45
2019-03-26T09:58:41.488Z,8.73
2019-03-26T10:03:44.004Z,20.10
2019-03-26T10:08:52.458Z,12.00
2019-03-26T10:13:48.800Z,10.60
2019-03-26T10:18:50.214Z,10.75
2019-03-26T10:23:51.733Z,11.57
2019-03-26T10:28:53.562Z,10.70
2019-03-26T10:33:55.004Z,12.65
2019-03-26T10:39:05.250Z,9.88
2019-03-26T10:43:59.883Z,11.30
2019-03-26T10:49:01.254Z,14.90
2019-03-26T10:54:02.950Z,14.70
2019-03-26T10:59:04.530Z,5.62
2019-03-26T11:04:07.837Z,9.55
2019-03-26T11:09:21.358Z,18.17
2019-03-26T11:14:12.776Z,11.63
2019-03-26T11:19:14.234Z,10.18
2019-03-26T11:24:17.680Z,12.30
2019-03-26T11:29:19.417Z,14.63
2019-03-26T11:34:20.806Z,11.75
2019-03-26T11:39:32.091Z,35.65
2019-03-26T11:44:25.571Z,12.90
2019-03-26T11:49:26.913Z,9.53
2019-03-26T11:54:28.334Z,17.55
2019-03-26T11:59:29.652Z,17.32
2019-03-26T12:04:31.137Z,16.42
2019-03-26T12:09:45.206Z,18.05
2019-03-26T12:14:36.030Z,13.35
2019-03-26T12:19:37.560Z,16.12
2019-03-26T12:24:39.039Z,16.75
2019-03-26T12:29:40.789Z,14.15
2019-03-26T12:34:42.051Z,10.70
2019-03-26T12:39:44.383Z,15.88
2019-03-26T12:44:46.275Z,12.93
2019-03-26T12:49:47.855Z,10.55
2019-03-26T12:54:49.201Z,10.15
2019-03-26T12:59:52.384Z,11.88
2019-03-26T13:04:53.911Z,10.10
2019-03-26T13:09:55.412Z,13.35
2019-03-26T13:14:59.336Z,9.20
2019-03-26T13:20:00.333Z,7.70
2019-03-26T13:25:06.958Z,9.08
2019-03-26T13:30:10.922Z,13.03
2019-03-26T13:35:12.822Z,10.80
2019-03-26T13:40:26.629Z,11.73
2019-03-26T13:45:18.317Z,8.68
2019-03-26T13:50:19.858Z,13.43
2019-03-26T13:55:21.485Z,8.05
2019-03-26T14:00:37.975Z,12.18
2019-03-26T14:05:41.173Z,12.98
2019-03-26T14:10:43.040Z,8.80
2019-03-26T14:15:44.711Z,9.80
2019-03-26T14:20:46.236Z,13.43
2019-03-26T14:25:47.646Z,13.72
2019-03-26T14:30:49.137Z,9.80
2019-03-26T14:35:50.614Z,15.75
2019-03-26T14:40:55.203Z,12.33
2019-03-26T14:45:56.787Z,11.93
2019-03-26T14:50:58.070Z,12.33
2019-03-26T14:56:01.300Z,13.03
2019-03-26T15:01:02.791Z,12.25
2019-03-26T15:06:04.676Z,9.50
2019-03-26T15:11:08.280Z,13.40
2019-03-26T15:16:09.700Z,15.72
2019-03-26T15:21:11.293Z,12.60
2019-03-26T15:26:12.696Z,18.17
2019-03-26T15:31:14.871Z,13.30
2019-03-26T15:36:16.543Z,11.55
2019-03-26T15:41:21.919Z,16.30
2019-03-26T15:46:21.596Z,15.05
2019-03-26T15:51:22.966Z,12.45
2019-03-26T15:56:24.523Z,17.05
2019-03-26T16:01:26.226Z,13.30
2019-03-26T16:06:30.157Z,16.17
2019-03-26T16:11:35.985Z,16.25
2019-03-26T16:16:35.093Z,11.40
2019-03-26T16:21:36.811Z,17.40
2019-03-26T16:26:38.413Z,12.90
2019-03-26T16:31:39.938Z,13.13
2019-03-26T16:36:41.468Z,15.75
2019-03-26T16:41:49.215Z,14.25
2019-03-26T16:46:48.805Z,12.00
2019-03-26T16:51:52.001Z,15.35
2019-03-26T16:56:53.674Z,16.12
2019-03-26T17:01:55.248Z,15.90
2019-03-26T17:06:58.619Z,18.42
2019-03-26T17:12:03.537Z,11.57
2019-03-26T17:17:07.164Z,15.55
2019-03-26T17:22:08.894Z,14.00
2019-03-26T17:27:10.545Z,15.90
2019-03-26T17:32:12.408Z,12.60
2019-03-26T17:37:14.005Z,17.40
2019-03-26T17:42:17.398Z,15.40
2019-03-26T17:47:19.676Z,18.35
2019-03-26T17:52:21.554Z,16.60
2019-03-26T17:57:24.928Z,14.95
2019-03-26T18:02:26.396Z,21.50
2019-03-26T18:07:29.735Z,18.25
2019-03-26T18:12:31.457Z,19.65
2019-03-26T18:17:33.202Z,27.30
2019-03-26T18:22:34.624Z,24.50
2019-03-26T18:27:37.183Z,27.35
2019-03-26T18:32:41.676Z,35.05
2019-03-26T18:37:43.599Z,28.42
2019-03-26T18:42:45.077Z,29.37
2019-03-26T18:47:46.590Z,38.42
2019-03-26T18:52:48.075Z,32.70
2019-03-26T18:57:49.499Z,33.02
2019-03-26T19:02:51.070Z,41.77
2019-03-26T19:07:52.741Z,34.58
2019-03-26T19:12:57.188Z,31.97
2019-03-26T19:17:58.586Z,42.40
2019-03-26T19:23:00.164Z,35.30
2019-03-26T19:28:01.838Z,36.50
2019-03-26T19:33:03.510Z,31.23
2019-03-26T19:38:05.105Z,32.30
2019-03-26T19:43:11.088Z,31.90
2019-03-26T19:48:11.527Z,37.30
2019-03-26T19:53:12.863Z,34.18
2019-03-26T19:58:14.282Z,26.33
2019-03-26T20:03:15.961Z,32.13
2019-03-26T20:08:17.607Z,31.55
2019-03-26T20:13:24.774Z,27.45
2019-03-26T20:18:22.943Z,33.35
2019-03-26T20:23:24.341Z,33.60
2019-03-26T20:28:26.888Z,28.95
2019-03-26T20:33:28.477Z,29.60
2019-03-26T20:38:30.362Z,33.53
2019-03-26T20:43:37.159Z,33.83
2019-03-26T20:48:35.084Z,30.02
2019-03-26T20:53:36.611Z,31.60
2019-03-26T20:58:38.212Z,30.85
2019-03-26T21:03:39.567Z,23.35
2019-03-26T21:08:41.226Z,30.35
2019-03-26T21:13:50.727Z,29.35
2019-03-26T21:18:46.651Z,31.90
2019-03-26T21:23:48.567Z,31.68
2019-03-26T21:28:50.258Z,34.78
2019-03-26T21:34:10.345Z,24.72
2019-03-26T21:39:11.944Z,30.57
2019-03-26T21:44:13.653Z,28.98
2019-03-26T21:49:15.095Z,26.30
2019-03-26T21:54:16.715Z,31.52
2019-03-26T21:59:18.182Z,34.23
2019-03-26T22:04:19.606Z,33.02
2019-03-26T22:09:21.122Z,33.30
2019-03-26T22:14:22.420Z,33.78
2019-03-26T22:19:28.772Z,35.52
2019-03-26T22:24:28.258Z,35.78
2019-03-26T22:29:30.011Z,37.83
2019-03-26T22:34:31.905Z,37.48
2019-03-26T22:39:33.566Z,41.90
2019-03-26T22:44:36.082Z,41.63
2019-03-26T22:49:38.064Z,38.20
2019-03-26T22:54:39.656Z,38.55
2019-03-26T22:59:59.520Z,31.77
2019-03-26T23:05:01.056Z,34.03
2019-03-26T23:10:04.046Z,38.50
2019-03-26T23:15:24.920Z,33.10
2019-03-26T23:20:26.521Z,39.70
2019-03-26T23:25:28.002Z,38.50
2019-03-26T23:30:31.846Z,36.48
2019-03-26T23:35:33.491Z,32.85
2019-03-26T23:40:35.067Z,32.93
2019-03-26T23:45:36.494Z,34.13
2019-03-26T23:50:38.225Z,32.70
2019-03-26T23:55:39.582Z,37.88
